createdAt,value
2022-11-03T00:00:27.603Z,0.00
2022-11-03T00:01:27.668Z,0.00
2022-11-03T00:02:27.837Z,0.00
2022-11-03T00:03:27.577Z,0.00
2022-11-03T00:04:27.562Z,0.00
2022-11-03T00:05:27.490Z,0.00
2022-11-03T00:06:27.572Z,0.00
2022-11-03T00:07:27.463Z,0.00
2022-11-03T00:08:27.481Z,0.00
2022-11-03T00:09:27.707Z,0.00
2022-11-03T00:10:27.444Z,0.00
2022-11-03T00:11:27.516Z,0.00
2022-11-03T00:12:27.465Z,0.00
2022-11-03T00:13:27.439Z,0.00
2022-11-03T00:14:27.440Z,0.00
2022-11-03T00:15:27.425Z,0.00
2022-11-03T00:16:27.416Z,0.00
2022-11-03T00:17:27.451Z,0.00
2022-11-03T00:18:27.386Z,0.00
2022-11-03T00:19:27.362Z,0.00
2022-11-03T00:20:27.444Z,0.00
2022-11-03T00:21:27.550Z,0.00
2022-11-03T00:22:27.321Z,0.00
2022-11-03T00:23:27.375Z,0.00
2022-11-03T00:24:27.281Z,0.00
2022-11-03T00:25:27.320Z,0.00
2022-11-03T00:26:27.319Z,0.00
2022-11-03T00:27:27.296Z,0.00
2022-11-03T00:28:27.243Z,0.00
2022-11-03T00:29:27.277Z,0.00
2022-11-03T00:30:27.254Z,0.00
2022-11-03T00:31:27.245Z,0.00
2022-11-03T00:32:27.211Z,0.00
2022-11-03T00:33:27.234Z,0.00
2022-11-03T00:34:27.200Z,0.00
2022-11-03T00:35:27.198Z,0.00
2022-11-03T00:36:27.155Z,0.00
2022-11-03T00:37:27.239Z,0.00
2022-11-03T00:38:27.119Z,0.00
2022-11-03T00:39:27.137Z,0.00
2022-11-03T00:40:27.325Z,0.00
2022-11-03T00:41:27.057Z,0.00
2022-11-03T00:42:27.082Z,0.00
2022-11-03T00:43:27.055Z,0.00
2022-11-03T00:44:27.022Z,0.00
2022-11-03T00:45:27.053Z,0.00
2022-11-03T00:46:27.252Z,0.00
2022-11-03T00:47:27.156Z,0.00
2022-11-03T00:48:27.031Z,0.00
2022-11-03T00:49:27.010Z,0.00
2022-11-03T00:50:26.992Z,0.00
2022-11-03T00:51:26.992Z,0.00
2022-11-03T00:52:26.970Z,0.00
2022-11-03T00:53:27.003Z,0.00
2022-11-03T00:54:27.007Z,0.00
2022-11-03T00:55:26.973Z,0.00
2022-11-03T00:56:26.938Z,0.00
2022-11-03T00:57:26.882Z,0.00
2022-11-03T00:58:27.208Z,0.00
2022-11-03T00:59:26.852Z,0.00
2022-11-03T01:00:26.841Z,0.00
2022-11-03T01:01:26.996Z,0.00
2022-11-03T01:02:27.143Z,0.00
2022-11-03T01:03:26.840Z,0.00
2022-11-03T01:04:26.843Z,0.00
2022-11-03T01:05:27.010Z,0.00
2022-11-03T01:06:26.786Z,0.00
2022-11-03T01:07:26.841Z,0.00
2022-11-03T01:08:27.831Z,0.00
2022-11-03T01:09:26.800Z,0.00
2022-11-03T01:10:26.756Z,0.00
2022-11-03T01:11:26.730Z,0.00
2022-11-03T01:12:26.739Z,0.00
2022-11-03T01:13:26.738Z,0.00
2022-11-03T01:14:26.716Z,0.00
2022-11-03T01:15:26.726Z,0.00
2022-11-03T01:16:26.714Z,0.00
2022-11-03T01:17:26.737Z,0.00
2022-11-03T01:18:26.650Z,0.00
2022-11-03T01:19:26.648Z,0.00
2022-11-03T01:20:26.634Z,0.00
2022-11-03T01:21:26.843Z,0.00
2022-11-03T01:22:26.653Z,0.00
2022-11-03T01:23:26.601Z,0.00
2022-11-03T01:24:26.618Z,0.00
2022-11-03T01:25:26.666Z,0.00
2022-11-03T01:26:26.581Z,0.00
2022-11-03T01:27:26.582Z,0.00
2022-11-03T01:28:26.519Z,0.00
2022-11-03T01:29:26.540Z,0.00
2022-11-03T01:30:26.511Z,0.00
2022-11-03T01:31:26.532Z,0.00
2022-11-03T01:32:26.583Z,0.00
2022-11-03T01:33:26.476Z,0.00
2022-11-03T01:34:26.493Z,0.00
2022-11-03T01:35:26.459Z,0.00
2022-11-03T01:36:26.466Z,0.00
2022-11-03T01:37:26.471Z,0.00
2022-11-03T01:38:26.425Z,0.00
2022-11-03T01:39:26.420Z,0.00
2022-11-03T01:40:26.413Z,0.00
2022-11-03T01:41:26.431Z,0.00
2022-11-03T01:42:26.410Z,0.00
2022-11-03T01:43:26.594Z,0.00
2022-11-03T01:44:26.417Z,0.00
2022-11-03T01:45:26.363Z,0.00
2022-11-03T01:46:26.323Z,0.00
2022-11-03T01:47:26.423Z,0.00
2022-11-03T01:48:26.393Z,0.00
2022-11-03T01:49:26.413Z,0.00
2022-11-03T01:50:26.296Z,0.00
2022-11-03T01:51:26.297Z,0.00
2022-11-03T01:52:26.315Z,0.00
2022-11-03T01:53:26.349Z,0.00
2022-11-03T01:54:26.236Z,0.00
2022-11-03T01:55:26.244Z,0.00
2022-11-03T01:56:26.335Z,0.00
2022-11-03T01:57:26.188Z,0.00
2022-11-03T01:58:26.222Z,0.00
2022-11-03T01:59:26.178Z,0.00
2022-11-03T02:00:26.165Z,0.00
2022-11-03T02:01:26.277Z,0.00
2022-11-03T02:02:26.246Z,0.00
2022-11-03T02:03:26.348Z,0.00
2022-11-03T02:04:26.128Z,0.00
2022-11-03T02:05:26.096Z,0.00
2022-11-03T02:06:26.080Z,0.00
2022-11-03T02:07:26.078Z,0.00
2022-11-03T02:08:26.049Z,0.00
2022-11-03T02:09:26.047Z,0.00
2022-11-03T02:10:26.040Z,0.00
2022-11-03T02:11:26.056Z,0.00
2022-11-03T02:12:26.029Z,0.00
2022-11-03T02:13:25.993Z,0.00
2022-11-03T02:14:25.990Z,0.00
2022-11-03T02:15:26.017Z,0.00
2022-11-03T02:16:25.991Z,0.00
2022-11-03T02:17:26.010Z,0.00
2022-11-03T02:18:25.935Z,0.00
2022-11-03T02:19:25.915Z,0.00
2022-11-03T02:20:25.915Z,0.00
2022-11-03T02:21:25.894Z,0.00
2022-11-03T02:22:25.957Z,0.00
2022-11-03T02:23:25.889Z,0.00
2022-11-03T02:24:25.863Z,0.00
2022-11-03T02:25:25.852Z,0.00
2022-11-03T02:26:25.879Z,0.00
2022-11-03T02:27:25.939Z,0.00
2022-11-03T02:28:25.849Z,0.00
2022-11-03T02:29:25.849Z,0.00
2022-11-03T02:30:25.841Z,0.00
2022-11-03T02:31:25.858Z,0.00
2022-11-03T02:32:25.805Z,0.00
2022-11-03T02:33:25.798Z,0.00
2022-11-03T02:34:25.733Z,0.00
2022-11-03T02:35:25.750Z,0.00
2022-11-03T02:36:25.726Z,0.00
2022-11-03T02:37:25.763Z,0.00
2022-11-03T02:38:25.755Z,0.00
2022-11-03T02:39:25.726Z,0.00
2022-11-03T02:40:25.724Z,0.00
2022-11-03T02:41:25.672Z,0.00
2022-11-03T02:42:25.658Z,0.00
2022-11-03T02:43:25.620Z,0.00
2022-11-03T02:44:25.661Z,0.00
2022-11-03T02:45:25.627Z,0.00
2022-11-03T02:46:25.602Z,0.00
2022-11-03T02:47:25.592Z,0.00
2022-11-03T02:48:25.577Z,0.00
2022-11-03T02:49:25.556Z,0.00
2022-11-03T02:50:25.584Z,0.00
2022-11-03T02:51:25.546Z,0.00
2022-11-03T02:52:25.538Z,0.00
2022-11-03T02:53:25.535Z,0.00
2022-11-03T02:54:25.525Z,0.00
2022-11-03T02:55:25.492Z,0.00
2022-11-03T02:56:25.479Z,0.00
2022-11-03T02:57:25.458Z,0.00
2022-11-03T02:58:25.441Z,0.00
2022-11-03T02:59:25.469Z,0.00
2022-11-03T03:00:25.475Z,0.00
2022-11-03T03:01:25.679Z,0.00
2022-11-03T03:02:25.535Z,0.00
2022-11-03T03:03:25.394Z,0.00
2022-11-03T03:04:25.431Z,0.00
2022-11-03T03:05:25.448Z,0.00
2022-11-03T03:06:25.370Z,0.00
2022-11-03T03:07:25.439Z,0.00
2022-11-03T03:08:25.461Z,0.00
2022-11-03T03:09:25.336Z,0.00
2022-11-03T03:10:25.451Z,0.00
2022-11-03T03:11:25.360Z,0.00
2022-11-03T03:12:25.328Z,0.00
2022-11-03T03:13:25.268Z,0.00
2022-11-03T03:14:25.241Z,0.00
2022-11-03T03:15:25.265Z,0.00
2022-11-03T03:16:25.278Z,0.00
2022-11-03T03:17:25.281Z,0.00
2022-11-03T03:18:25.216Z,0.00
2022-11-03T03:19:25.215Z,0.00
2022-11-03T03:20:25.217Z,0.00
2022-11-03T03:21:25.188Z,0.00
2022-11-03T03:22:25.174Z,0.00
2022-11-03T03:23:25.139Z,0.00
2022-11-03T03:24:25.138Z,0.00
2022-11-03T03:25:25.143Z,0.00
2022-11-03T03:26:25.147Z,0.00
2022-11-03T03:27:25.141Z,0.00
2022-11-03T03:28:25.109Z,0.00
2022-11-03T03:29:25.092Z,0.00
2022-11-03T03:30:25.085Z,0.00
2022-11-03T03:31:25.078Z,0.00
2022-11-03T03:32:25.089Z,0.00
2022-11-03T03:33:25.073Z,0.00
2022-11-03T03:34:34.518Z,0.00
2022-11-03T03:35:25.007Z,0.00
2022-11-03T03:36:25.022Z,0.00
2022-11-03T03:37:24.999Z,0.00
2022-11-03T03:38:24.995Z,0.00
2022-11-03T03:39:25.001Z,0.00
2022-11-03T03:40:24.953Z,0.00
2022-11-03T03:41:24.950Z,0.00
2022-11-03T03:42:24.972Z,0.00
2022-11-03T03:43:24.942Z,0.00
2022-11-03T03:44:24.909Z,0.00
2022-11-03T03:45:24.893Z,0.00
2022-11-03T03:46:24.889Z,0.00
2022-11-03T03:47:24.913Z,0.00
2022-11-03T03:48:24.873Z,0.00
2022-11-03T03:49:24.873Z,0.00
2022-11-03T03:50:24.884Z,0.00
2022-11-03T03:51:24.876Z,0.00
2022-11-03T03:52:24.865Z,0.00
2022-11-03T03:53:24.825Z,0.00
2022-11-03T03:54:24.787Z,0.00
2022-11-03T03:56:24.741Z,0.00
2022-11-03T03:57:24.822Z,0.00
2022-11-03T03:58:24.846Z,0.00
2022-11-03T03:59:24.726Z,0.00
2022-11-03T04:00:24.723Z,0.00
2022-11-03T04:01:25.132Z,0.00
2022-11-03T04:02:24.850Z,0.00
2022-11-03T04:03:24.667Z,0.00
2022-11-03T04:04:24.735Z,0.00
2022-11-03T04:05:24.696Z,0.00
2022-11-03T04:06:24.636Z,0.00
2022-11-03T04:07:24.693Z,0.00
2022-11-03T04:08:24.605Z,0.00
2022-11-03T04:09:24.675Z,0.00
2022-11-03T04:10:24.559Z,0.00
2022-11-03T04:11:24.546Z,0.00
2022-11-03T04:12:24.554Z,0.00
2022-11-03T04:13:24.592Z,0.00
2022-11-03T04:14:24.622Z,0.00
2022-11-03T04:15:24.614Z,0.00
2022-11-03T04:16:24.565Z,0.00
2022-11-03T04:17:24.576Z,0.00
2022-11-03T04:18:24.484Z,0.00
2022-11-03T04:19:24.494Z,0.00
2022-11-03T04:20:24.499Z,0.00
2022-11-03T04:21:24.453Z,0.00
2022-11-03T04:22:24.525Z,0.00
2022-11-03T04:23:24.426Z,0.00
2022-11-03T04:24:24.575Z,0.00
2022-11-03T04:25:24.397Z,0.00
2022-11-03T04:26:24.414Z,0.00
2022-11-03T04:27:24.405Z,0.00
2022-11-03T04:28:24.483Z,0.00
2022-11-03T04:29:24.423Z,0.00
2022-11-03T04:30:24.343Z,0.00
2022-11-03T04:31:24.389Z,0.00
2022-11-03T04:32:24.345Z,0.00
2022-11-03T04:33:24.588Z,0.00
2022-11-03T04:34:24.501Z,0.00
2022-11-03T04:35:24.357Z,0.00
2022-11-03T04:36:24.302Z,0.00
2022-11-03T04:37:24.264Z,0.00
2022-11-03T04:38:24.241Z,0.00
2022-11-03T04:39:24.226Z,0.00
2022-11-03T04:40:24.202Z,0.00
2022-11-03T04:41:24.232Z,0.00
2022-11-03T04:42:24.170Z,0.00
2022-11-03T04:43:24.173Z,0.00
2022-11-03T04:44:24.171Z,0.00
2022-11-03T04:45:24.138Z,0.00
2022-11-03T04:46:24.136Z,0.00
2022-11-03T04:47:24.144Z,0.00
2022-11-03T04:48:24.123Z,0.00
2022-11-03T04:49:24.122Z,0.00
2022-11-03T04:50:24.121Z,0.00
2022-11-03T04:51:24.072Z,0.00
2022-11-03T04:52:24.075Z,0.00
2022-11-03T04:53:24.064Z,0.00
2022-11-03T04:54:24.118Z,0.00
2022-11-03T04:55:24.049Z,0.00
2022-11-03T04:56:24.013Z,0.00
2022-11-03T04:57:24.191Z,0.00
2022-11-03T04:58:23.979Z,0.00
2022-11-03T04:59:23.973Z,0.00
2022-11-03T05:00:23.953Z,0.00
2022-11-03T05:01:24.872Z,0.00
2022-11-03T05:02:23.936Z,0.00
2022-11-03T05:03:23.924Z,0.00
2022-11-03T05:04:23.891Z,0.00
2022-11-03T05:05:24.114Z,0.00
2022-11-03T05:06:23.914Z,0.00
2022-11-03T05:07:23.849Z,0.00
2022-11-03T05:08:23.942Z,0.00
2022-11-03T05:09:23.829Z,0.00
2022-11-03T05:10:24.038Z,0.00
2022-11-03T05:11:23.843Z,0.00
2022-11-03T05:12:23.816Z,0.00
2022-11-03T05:13:24.025Z,0.00
2022-11-03T05:14:23.868Z,0.00
2022-11-03T05:15:23.760Z,0.00
2022-11-03T05:16:23.775Z,0.00
2022-11-03T05:17:23.744Z,0.00
2022-11-03T05:18:23.763Z,0.00
2022-11-03T05:19:23.746Z,0.00
2022-11-03T05:20:23.726Z,0.00
2022-11-03T05:21:23.745Z,0.00
2022-11-03T05:22:23.760Z,0.00
2022-11-03T05:23:23.673Z,0.00
2022-11-03T05:24:23.683Z,0.00
2022-11-03T05:25:23.623Z,0.00
2022-11-03T05:26:23.614Z,0.00
2022-11-03T05:27:23.595Z,0.00
2022-11-03T05:28:23.575Z,0.00
2022-11-03T05:29:23.570Z,0.00
2022-11-03T05:30:23.604Z,0.00
2022-11-03T05:31:23.548Z,0.00
2022-11-03T05:32:23.530Z,0.00
2022-11-03T05:33:23.573Z,0.00
2022-11-03T05:34:23.513Z,0.00
2022-11-03T05:35:23.503Z,0.00
2022-11-03T05:36:23.497Z,0.00
2022-11-03T05:37:26.881Z,0.00
2022-11-03T05:38:23.648Z,0.00
2022-11-03T05:39:23.481Z,0.00
2022-11-03T05:40:23.517Z,0.00
2022-11-03T05:41:23.665Z,0.00
2022-11-03T05:42:23.463Z,0.00
2022-11-03T05:43:23.430Z,0.00
2022-11-03T05:44:23.402Z,0.00
2022-11-03T05:45:23.422Z,0.00
2022-11-03T05:46:23.365Z,0.00
2022-11-03T05:47:23.383Z,0.00
2022-11-03T05:48:23.360Z,0.00
2022-11-03T05:49:23.339Z,0.00
2022-11-03T05:50:23.369Z,0.00
2022-11-03T05:51:23.337Z,0.00
2022-11-03T05:52:23.523Z,0.00
2022-11-03T05:53:23.297Z,0.00
2022-11-03T05:54:23.318Z,0.00
2022-11-03T05:55:23.306Z,0.00
2022-11-03T05:56:23.333Z,0.00
2022-11-03T05:57:23.249Z,0.00
2022-11-03T05:58:23.253Z,0.00
2022-11-03T05:59:23.205Z,0.00
2022-11-03T06:00:23.203Z,0.00
2022-11-03T06:01:23.245Z,0.00
2022-11-03T06:02:23.429Z,5.63
2022-11-03T06:03:23.174Z,5.63
2022-11-03T06:04:23.155Z,5.63
2022-11-03T06:05:23.136Z,5.63
2022-11-03T06:06:26.857Z,5.63
2022-11-03T06:07:23.145Z,5.63
2022-11-03T06:09:23.107Z,5.63
2022-11-03T06:10:23.294Z,11.25
2022-11-03T06:11:23.080Z,11.25
2022-11-03T06:12:23.089Z,11.25
2022-11-03T06:13:23.035Z,16.88
2022-11-03T06:14:24.710Z,16.88
2022-11-03T06:15:23.008Z,16.88
2022-11-03T06:16:22.998Z,16.88
2022-11-03T06:17:22.982Z,22.50
2022-11-03T06:18:22.974Z,22.50
2022-11-03T06:19:22.970Z,22.50
2022-11-03T06:20:22.967Z,28.13
2022-11-03T06:21:22.927Z,28.13
2022-11-03T06:22:22.955Z,28.13
2022-11-03T06:23:22.914Z,28.13
2022-11-03T06:24:22.914Z,28.13
2022-11-03T06:25:22.914Z,33.75
2022-11-03T06:26:22.864Z,39.38
2022-11-03T06:27:22.869Z,39.38
2022-11-03T06:28:23.069Z,45.00
2022-11-03T06:29:22.837Z,45.00
2022-11-03T06:30:22.840Z,56.25
2022-11-03T06:31:23.419Z,73.13
2022-11-03T06:32:22.803Z,112.50
2022-11-03T06:33:22.798Z,163.13
2022-11-03T06:34:22.783Z,185.63
2022-11-03T06:35:22.759Z,191.25
2022-11-03T06:36:22.744Z,213.75
2022-11-03T06:37:22.739Z,236.25
2022-11-03T06:38:22.743Z,241.88
2022-11-03T06:39:22.714Z,281.25
2022-11-03T06:40:22.734Z,292.50
2022-11-03T06:41:22.721Z,326.25
2022-11-03T06:42:24.663Z,343.13
2022-11-03T06:43:22.687Z,309.38
2022-11-03T06:44:22.700Z,286.88
2022-11-03T06:45:22.678Z,275.63
2022-11-03T06:46:22.858Z,275.63
2022-11-03T06:47:22.658Z,326.25
2022-11-03T06:48:22.624Z,360.00
2022-11-03T06:49:22.637Z,292.50
2022-11-03T06:50:22.628Z,264.38
2022-11-03T06:51:22.606Z,213.75
2022-11-03T06:52:22.650Z,174.38
2022-11-03T06:53:22.782Z,157.50
2022-11-03T06:54:22.585Z,163.13
2022-11-03T06:55:22.557Z,174.38
2022-11-03T06:56:22.554Z,174.38
2022-11-03T06:57:22.560Z,180.00
2022-11-03T06:58:22.551Z,185.63
2022-11-03T06:59:22.514Z,191.25
2022-11-03T07:00:40.308Z,213.75
2022-11-03T07:01:22.698Z,225.00
2022-11-03T07:02:22.593Z,264.38
2022-11-03T07:03:22.491Z,303.75
2022-11-03T07:04:22.489Z,348.75
2022-11-03T07:05:22.461Z,360.00
2022-11-03T07:06:22.437Z,320.63
2022-11-03T07:07:22.447Z,315.00
2022-11-03T07:08:22.443Z,331.88
2022-11-03T07:09:22.410Z,399.38
2022-11-03T07:10:22.409Z,438.75
2022-11-03T07:11:22.382Z,483.75
2022-11-03T07:12:22.419Z,455.63
2022-11-03T07:13:22.358Z,534.38
2022-11-03T07:14:22.356Z,669.38
2022-11-03T07:15:22.369Z,686.25
2022-11-03T07:16:22.362Z,438.75
2022-11-03T07:17:22.348Z,618.75
2022-11-03T07:18:22.381Z,607.50
2022-11-03T07:19:22.338Z,725.63
2022-11-03T07:20:22.318Z,697.50
2022-11-03T07:21:22.303Z,630.00
2022-11-03T07:22:22.319Z,528.75
2022-11-03T07:23:22.277Z,562.50
2022-11-03T07:24:22.271Z,562.50
2022-11-03T07:25:22.255Z,534.38
2022-11-03T07:26:22.281Z,736.88
2022-11-03T07:27:22.245Z,686.25
2022-11-03T07:28:22.247Z,562.50
2022-11-03T07:29:22.299Z,551.25
2022-11-03T07:30:22.254Z,528.75
2022-11-03T07:31:22.246Z,450.00
2022-11-03T07:32:22.228Z,320.63
2022-11-03T07:33:22.207Z,225.00
2022-11-03T07:34:22.209Z,191.25
2022-11-03T07:35:22.193Z,174.38
2022-11-03T07:36:22.194Z,157.50
2022-11-03T07:37:22.170Z,151.88
2022-11-03T07:38:22.153Z,146.25
2022-11-03T07:39:22.151Z,140.63
2022-11-03T07:40:22.159Z,140.63
2022-11-03T07:41:22.148Z,123.75
2022-11-03T07:42:22.130Z,123.75
2022-11-03T07:43:22.327Z,123.75
2022-11-03T07:44:22.102Z,118.13
2022-11-03T07:45:22.137Z,112.50
2022-11-03T07:46:22.100Z,112.50
2022-11-03T07:47:22.134Z,112.50
2022-11-03T07:48:22.317Z,106.88
2022-11-03T07:49:22.063Z,106.88
2022-11-03T07:50:22.132Z,112.50
2022-11-03T07:51:22.075Z,112.50
2022-11-03T07:52:22.068Z,118.13
2022-11-03T07:53:25.917Z,118.13
2022-11-03T07:54:22.078Z,123.75
2022-11-03T07:55:22.007Z,123.75
2022-11-03T07:56:22.117Z,129.38
2022-11-03T07:57:22.013Z,129.38
2022-11-03T07:58:22.225Z,123.75
2022-11-03T07:59:21.976Z,118.13
2022-11-03T08:00:21.988Z,112.50
2022-11-03T08:01:22.023Z,106.88
2022-11-03T08:02:22.031Z,106.88
2022-11-03T08:03:21.960Z,106.88
2022-11-03T08:04:21.974Z,112.50
2022-11-03T08:05:21.971Z,106.88
2022-11-03T08:06:21.932Z,106.88
2022-11-03T08:07:21.981Z,112.50
2022-11-03T08:08:21.906Z,112.50
2022-11-03T08:09:21.861Z,118.13
2022-11-03T08:10:21.855Z,118.13
2022-11-03T08:11:24.604Z,118.13
2022-11-03T08:12:21.839Z,123.75
2022-11-03T08:13:21.858Z,129.38
2022-11-03T08:14:21.828Z,135.00
2022-11-03T08:15:21.800Z,140.63
2022-11-03T08:16:21.802Z,163.13
2022-11-03T08:17:21.788Z,168.75
2022-11-03T08:18:21.805Z,174.38
2022-11-03T08:19:21.804Z,180.00
2022-11-03T08:20:21.810Z,174.38
2022-11-03T08:21:21.779Z,174.38
2022-11-03T08:22:21.748Z,174.38
2022-11-03T08:23:26.342Z,174.38
2022-11-03T08:24:21.750Z,180.00
2022-11-03T08:25:21.739Z,185.63
2022-11-03T08:26:21.717Z,180.00
2022-11-03T08:27:21.723Z,185.63
2022-11-03T08:28:21.700Z,191.25
2022-11-03T08:29:21.686Z,185.63
2022-11-03T08:30:21.680Z,174.38
2022-11-03T08:31:21.665Z,180.00
2022-11-03T08:32:21.669Z,174.38
2022-11-03T08:33:21.691Z,174.38
2022-11-03T08:34:21.642Z,185.63
2022-11-03T08:35:21.662Z,191.25
2022-11-03T08:36:21.663Z,196.88
2022-11-03T08:37:21.626Z,202.50
2022-11-03T08:38:21.602Z,196.88
2022-11-03T08:39:21.853Z,202.50
2022-11-03T08:40:21.615Z,208.13
2022-11-03T08:41:21.588Z,208.13
2022-11-03T08:42:21.635Z,213.75
2022-11-03T08:43:21.572Z,208.13
2022-11-03T08:44:21.583Z,202.50
2022-11-03T08:45:21.551Z,196.88
2022-11-03T08:46:21.640Z,196.88
2022-11-03T08:47:21.547Z,213.75
2022-11-03T08:48:21.563Z,213.75
2022-11-03T08:49:21.562Z,213.75
2022-11-03T08:50:21.518Z,225.00
2022-11-03T08:51:21.549Z,225.00
2022-11-03T08:52:21.534Z,230.63
2022-11-03T08:53:21.524Z,230.63
2022-11-03T08:54:21.565Z,230.63
2022-11-03T08:55:21.517Z,225.00
2022-11-03T08:56:22.644Z,208.13
2022-11-03T08:57:21.507Z,208.13
2022-11-03T08:58:21.482Z,196.88
2022-11-03T08:59:21.475Z,213.75
2022-11-03T09:00:21.490Z,213.75
2022-11-03T09:01:21.754Z,208.13
2022-11-03T09:02:21.494Z,202.50
2022-11-03T09:03:21.531Z,213.75
2022-11-03T09:04:21.489Z,219.38
2022-11-03T09:05:21.468Z,219.38
2022-11-03T09:06:21.466Z,219.38
2022-11-03T09:07:21.646Z,236.25
2022-11-03T09:10:23.497Z,258.75
2022-11-03T09:11:21.461Z,241.88
2022-11-03T09:12:21.425Z,258.75
2022-11-03T09:13:21.398Z,275.63
2022-11-03T09:14:21.411Z,320.63
2022-11-03T09:15:21.445Z,540.00
2022-11-03T09:16:21.375Z,810.00
2022-11-03T09:17:21.383Z,427.50
2022-11-03T09:18:21.376Z,388.13
2022-11-03T09:19:21.373Z,286.88
2022-11-03T09:20:21.466Z,202.50
2022-11-03T09:21:21.387Z,185.63
2022-11-03T09:22:21.355Z,180.00
2022-11-03T09:23:21.361Z,202.50
2022-11-03T09:24:21.372Z,253.13
2022-11-03T09:25:21.338Z,281.25
2022-11-03T09:26:21.351Z,270.00
2022-11-03T09:27:21.337Z,241.88
2022-11-03T09:28:21.380Z,264.38
2022-11-03T09:29:21.333Z,331.88
2022-11-03T09:30:21.432Z,540.00
2022-11-03T09:31:21.327Z,866.25
2022-11-03T09:32:23.486Z,900.00
2022-11-03T09:33:21.301Z,630.00
2022-11-03T09:34:21.333Z,826.88
2022-11-03T09:35:21.313Z,832.50
2022-11-03T09:36:21.303Z,967.50
2022-11-03T09:37:21.277Z,900.00
2022-11-03T09:38:21.268Z,855.00
2022-11-03T09:39:21.275Z,478.13
2022-11-03T09:40:21.294Z,815.63
2022-11-03T09:41:29.175Z,641.25
2022-11-03T09:42:21.247Z,601.88
2022-11-03T09:43:21.287Z,596.25
2022-11-03T09:44:21.304Z,607.50
2022-11-03T09:45:21.252Z,601.88
2022-11-03T09:46:21.230Z,691.88
2022-11-03T09:47:21.252Z,669.38
2022-11-03T09:48:21.225Z,618.75
2022-11-03T09:49:21.208Z,691.88
2022-11-03T09:50:21.308Z,624.38
2022-11-03T09:51:21.215Z,596.25
2022-11-03T09:52:21.197Z,444.38
2022-11-03T09:53:21.188Z,483.75
2022-11-03T09:54:21.191Z,393.75
2022-11-03T09:55:21.201Z,376.88
2022-11-03T09:56:21.448Z,371.25
2022-11-03T09:57:21.208Z,348.75
2022-11-03T09:58:21.170Z,315.00
2022-11-03T09:59:21.179Z,275.63
2022-11-03T10:00:21.170Z,258.75
2022-11-03T10:01:21.326Z,241.88
2022-11-03T10:02:21.240Z,241.88
2022-11-03T10:03:21.181Z,247.50
2022-11-03T10:04:21.127Z,219.38
2022-11-03T10:05:21.142Z,213.75
2022-11-03T10:06:21.441Z,225.00
2022-11-03T10:07:21.151Z,208.13
2022-11-03T10:08:22.662Z,202.50
2022-11-03T10:09:21.317Z,163.13
2022-11-03T10:10:21.111Z,157.50
2022-11-03T10:11:21.108Z,146.25
2022-11-03T10:12:21.341Z,140.63
2022-11-03T10:13:21.101Z,135.00
2022-11-03T10:14:21.081Z,135.00
2022-11-03T10:15:21.099Z,129.38
2022-11-03T10:16:21.085Z,118.13
2022-11-03T10:17:21.092Z,118.13
2022-11-03T10:18:21.059Z,118.13
2022-11-03T10:19:21.051Z,118.13
2022-11-03T10:20:21.044Z,112.50
2022-11-03T10:21:21.066Z,112.50
2022-11-03T10:22:21.038Z,106.88
2022-11-03T10:23:21.032Z,101.25
2022-11-03T10:24:21.234Z,101.25
2022-11-03T10:25:21.000Z,101.25
2022-11-03T10:26:21.186Z,95.63
2022-11-03T10:27:20.989Z,101.25
2022-11-03T10:28:21.001Z,101.25
2022-11-03T10:29:20.990Z,101.25
2022-11-03T10:30:20.977Z,101.25
2022-11-03T10:31:20.996Z,106.88
2022-11-03T10:32:20.951Z,106.88
2022-11-03T10:33:20.961Z,106.88
2022-11-03T10:34:20.935Z,112.50
2022-11-03T10:35:20.947Z,112.50
2022-11-03T10:36:21.145Z,123.75
2022-11-03T10:37:21.055Z,129.38
2022-11-03T10:38:20.904Z,135.00
2022-11-03T10:39:20.915Z,146.25
2022-11-03T10:40:46.686Z,157.50
2022-11-03T10:41:20.898Z,163.13
2022-11-03T10:42:20.882Z,174.38
2022-11-03T10:43:20.864Z,168.75
2022-11-03T10:44:20.913Z,168.75
2022-11-03T10:45:20.848Z,174.38
2022-11-03T10:46:48.571Z,180.00
2022-11-03T10:47:20.839Z,174.38
2022-11-03T10:48:20.838Z,174.38
2022-11-03T10:49:21.391Z,180.00
2022-11-03T10:50:20.815Z,180.00
2022-11-03T10:51:20.841Z,191.25
2022-11-03T10:52:20.928Z,174.38
2022-11-03T10:53:20.873Z,185.63
2022-11-03T10:54:20.788Z,174.38
2022-11-03T10:55:23.992Z,168.75
2022-11-03T10:56:20.773Z,185.63
2022-11-03T10:57:20.766Z,185.63
2022-11-03T10:58:20.756Z,185.63
2022-11-03T10:59:20.845Z,185.63
2022-11-03T11:00:20.762Z,191.25
2022-11-03T11:01:20.823Z,180.00
2022-11-03T11:02:20.773Z,180.00
2022-11-03T11:03:21.021Z,174.38
2022-11-03T11:04:20.927Z,174.38
2022-11-03T11:05:20.706Z,163.13
2022-11-03T11:06:20.707Z,168.75
2022-11-03T11:07:20.718Z,163.13
2022-11-03T11:08:20.754Z,157.50
2022-11-03T11:09:20.707Z,168.75
2022-11-03T11:10:20.666Z,168.75
2022-11-03T11:11:20.638Z,168.75
2022-11-03T11:12:20.627Z,157.50
2022-11-03T11:13:20.644Z,157.50
2022-11-03T11:14:20.613Z,168.75
2022-11-03T11:15:20.616Z,168.75
2022-11-03T11:16:20.655Z,168.75
2022-11-03T11:17:20.612Z,168.75
2022-11-03T11:19:20.600Z,163.13
2022-11-03T11:20:20.591Z,157.50
2022-11-03T11:21:20.582Z,151.88
2022-11-03T11:22:20.776Z,151.88
2022-11-03T11:23:20.592Z,157.50
2022-11-03T11:24:20.570Z,163.13
2022-11-03T11:25:20.570Z,163.13
2022-11-03T11:26:20.560Z,163.13
2022-11-03T11:27:20.591Z,180.00
2022-11-03T11:28:20.535Z,168.75
2022-11-03T11:29:20.546Z,180.00
2022-11-03T11:30:20.521Z,208.13
2022-11-03T11:31:20.519Z,208.13
2022-11-03T11:32:20.536Z,230.63
2022-11-03T11:33:20.534Z,213.75
2022-11-03T11:34:20.513Z,168.75
2022-11-03T11:35:20.528Z,168.75
2022-11-03T11:36:20.691Z,163.13
2022-11-03T11:37:20.511Z,180.00
2022-11-03T11:38:20.480Z,174.38
2022-11-03T11:39:20.648Z,163.13
2022-11-03T11:40:20.463Z,168.75
2022-11-03T11:41:20.454Z,163.13
2022-11-03T11:42:20.480Z,140.63
2022-11-03T11:43:20.434Z,151.88
2022-11-03T11:44:20.442Z,146.25
2022-11-03T11:45:20.431Z,140.63
2022-11-03T11:46:20.413Z,135.00
2022-11-03T11:47:20.611Z,135.00
2022-11-03T11:48:20.436Z,135.00
2022-11-03T11:49:20.397Z,140.63
2022-11-03T11:50:20.402Z,135.00
2022-11-03T11:51:20.400Z,135.00
2022-11-03T11:52:20.581Z,140.63
2022-11-03T11:53:20.375Z,140.63
2022-11-03T11:54:20.356Z,146.25
2022-11-03T11:55:20.358Z,140.63
2022-11-03T11:56:20.417Z,140.63
2022-11-03T11:57:20.342Z,140.63
2022-11-03T11:58:20.335Z,146.25
2022-11-03T11:59:24.637Z,146.25
2022-11-03T12:00:20.345Z,140.63
2022-11-03T12:01:20.388Z,146.25
2022-11-03T12:02:20.298Z,146.25
2022-11-03T12:03:20.358Z,146.25
2022-11-03T12:04:20.340Z,140.63
2022-11-03T12:05:20.287Z,140.63
2022-11-03T12:06:20.264Z,140.63
2022-11-03T12:07:20.357Z,140.63
2022-11-03T12:08:20.281Z,140.63
2022-11-03T12:09:20.265Z,135.00
2022-11-03T12:10:20.259Z,129.38
2022-11-03T12:11:20.327Z,118.13
2022-11-03T12:12:20.441Z,118.13
2022-11-03T12:13:20.233Z,118.13
2022-11-03T12:14:20.217Z,118.13
2022-11-03T12:15:20.224Z,112.50
2022-11-03T12:16:20.221Z,118.13
2022-11-03T12:17:20.236Z,112.50
2022-11-03T12:18:20.226Z,112.50
2022-11-03T12:19:20.217Z,112.50
2022-11-03T12:20:20.220Z,112.50
2022-11-03T12:21:20.191Z,106.88
2022-11-03T12:22:20.190Z,106.88
2022-11-03T12:23:20.177Z,106.88
2022-11-03T12:24:20.160Z,106.88
2022-11-03T12:25:20.193Z,112.50
2022-11-03T12:26:20.155Z,112.50
2022-11-03T12:27:20.162Z,112.50
2022-11-03T12:28:20.163Z,112.50
2022-11-03T12:29:20.133Z,112.50
2022-11-03T12:30:20.143Z,112.50
2022-11-03T12:31:20.103Z,112.50
2022-11-03T12:32:32.557Z,112.50
2022-11-03T12:33:20.107Z,112.50
2022-11-03T12:34:20.104Z,106.88
2022-11-03T12:35:20.092Z,112.50
2022-11-03T12:36:20.105Z,112.50
2022-11-03T12:37:20.078Z,101.25
2022-11-03T12:38:20.055Z,95.63
2022-11-03T12:39:20.089Z,95.63
2022-11-03T12:40:20.047Z,101.25
2022-11-03T12:41:20.134Z,95.63
2022-11-03T12:42:20.039Z,95.63
2022-11-03T12:43:20.031Z,106.88
2022-11-03T12:44:20.181Z,95.63
2022-11-03T12:45:20.005Z,90.00
2022-11-03T12:46:20.049Z,95.63
2022-11-03T12:47:20.036Z,106.88
2022-11-03T12:48:19.998Z,106.88
2022-11-03T12:49:20.047Z,101.25
2022-11-03T12:50:20.019Z,95.63
2022-11-03T12:51:20.012Z,90.00
2022-11-03T12:52:20.214Z,90.00
2022-11-03T12:53:19.963Z,90.00
2022-11-03T12:54:19.958Z,95.63
2022-11-03T12:55:20.029Z,95.63
2022-11-03T12:56:20.134Z,101.25
2022-11-03T12:57:19.973Z,101.25